Franconia, Virginia
Current Conditions -  °F | °C
As of 5:58 PM on Monday 22 Dec 2014 (Local Time) from KDAA Reporting Station
Light Rain Light Rain  
Wind Chill: 32°   Ceiling: 600
Heat Index: 36°   Visibility: 3mi
Dew Point: 32°   Wind: 5mph
Humidity: 87%   Direction: 350°N
Pressure: 30.16"   Gusts: NA
Location:  38.78°N, 77.15°W
Report Text: KDAA 222258Z AUTO 35004KT 3SM R32/4000FT -RA BR OVC006 02/00 A3016 RMK AO2 SLP217 P0002
Loading
Personal Weather Stations






























Interactive Weather Map New forecast layout! Learn more

10-Day Weather Forecast

Advertisements
Track Severe Weather on mobile